Portada
METAR-TAF:

METAR-TAF

Aeropuertos :

Base aérea

Ismailía, Egipto

latitud: 30-35-54N, longitud: 032-14-13E, altitud: 13 m

Observación

El informe se hizo hace 11 horas y 11 minutos, a las 16:00 UTC
Viento 10 kt del noroeste
Temperatura 31°C
Humedad 49%
Presión 1009 hPa
Visibilidad 10 km o más
sin nubes por debajo de 1500 m y sin presencia de cumulonimbus.

METAR: HEIS 231600Z 32010KT CAVOK 31/19 Q1009

Hora: 05:11 (03:11 UTC)


TAF: falta

Observaciones y pronósticos meteorológicos de más de 4000 aeropuertos (mensajes METAR y TAF).

Los puntos amarillos y rojos representan las estaciones disponibles.

Ponga el ratón en el punto deseado para ver el nombre de la estación.

Haga clic para ver las observaciones y los pronósticos meteorológicos.

Para cambiar el mapa : haga clic en los botones verdes con una cruz de color negro para hacer un zoom, en el botón verde con un guión para alejar o en las flechas verdes para mapas adyacentes.


METAR-TAF: